createdAt,value
2018-07-01T00:00:25.409Z,0
2018-07-01T00:01:34.819Z,0
2018-07-01T00:02:44.234Z,0
2018-07-01T00:03:53.918Z,0
2018-07-01T00:05:03.080Z,0
2018-07-01T00:06:12.767Z,0
2018-07-01T00:07:21.919Z,0
2018-07-01T00:08:31.323Z,0
2018-07-01T00:09:40.734Z,0
2018-07-01T00:10:50.696Z,0
2018-07-01T00:12:00.199Z,0
2018-07-01T00:13:09.607Z,0
2018-07-01T00:14:19.535Z,0
2018-07-01T00:15:29.192Z,0
2018-07-01T00:16:38.361Z,0
2018-07-01T00:17:48.045Z,0
2018-07-01T00:18:57.717Z,0
2018-07-01T00:20:06.629Z,0
2018-07-01T00:21:16.038Z,0
2018-07-01T00:22:25.188Z,0
2018-07-01T00:23:34.596Z,0
2018-07-01T00:24:44.530Z,0
2018-07-01T00:25:53.675Z,0
2018-07-01T00:27:03.354Z,0
2018-07-01T00:28:12.756Z,0
2018-07-01T00:29:22.682Z,0
2018-07-01T00:30:32.092Z,0
2018-07-01T00:31:40.733Z,0
2018-07-01T00:32:49.881Z,0
2018-07-01T00:33:59.290Z,0
2018-07-01T00:35:08.716Z,0
2018-07-01T00:36:18.113Z,0
2018-07-01T00:37:27.542Z,0
2018-07-01T00:38:36.969Z,0
2018-07-01T00:39:46.358Z,0
2018-07-01T00:40:56.284Z,0
2018-07-01T00:42:05.686Z,0
2018-07-01T00:43:15.360Z,0
2018-07-01T00:44:24.538Z,0
2018-07-01T00:45:33.436Z,0
2018-07-01T00:46:42.858Z,0
2018-07-01T00:47:52.520Z,0
2018-07-01T00:49:02.204Z,0
2018-07-01T00:50:11.613Z,0
2018-07-01T00:51:21.292Z,0
2018-07-01T00:52:30.712Z,0
2018-07-01T00:53:39.856Z,0
2018-07-01T00:54:49.264Z,0
2018-07-01T00:55:58.921Z,0
2018-07-01T00:57:08.324Z,0
2018-07-01T00:58:16.956Z,0
2018-07-01T00:59:26.356Z,0
2018-07-01T01:00:35.784Z,0
2018-07-01T01:01:45.183Z,0
2018-07-01T01:02:55.115Z,0
2018-07-01T01:04:04.792Z,0
2018-07-01T01:05:14.221Z,0
2018-07-01T01:06:23.134Z,0
2018-07-01T01:07:32.785Z,0
2018-07-01T01:08:42.225Z,0
2018-07-01T01:09:52.074Z,0
2018-07-01T01:11:01.749Z,0
2018-07-01T01:12:10.905Z,0
2018-07-01T01:13:20.316Z,0
2018-07-01T01:14:29.990Z,0
2018-07-01T01:15:39.728Z,0
2018-07-01T01:16:49.646Z,0
2018-07-01T01:17:59.056Z,0
2018-07-01T01:19:08.223Z,0
2018-07-01T01:20:17.371Z,0
2018-07-01T01:21:26.526Z,0
2018-07-01T01:22:35.945Z,0
2018-07-01T01:23:45.354Z,0
2018-07-01T01:24:54.765Z,0
2018-07-01T01:26:04.452Z,0
2018-07-01T01:27:14.382Z,0
2018-07-01T01:28:23.804Z,0
2018-07-01T01:29:33.212Z,0
2018-07-01T01:30:42.375Z,0
2018-07-01T01:31:51.786Z,0
2018-07-01T01:33:01.212Z,0
2018-07-01T01:34:10.364Z,0
2018-07-01T01:35:20.298Z,0
2018-07-01T01:36:29.710Z,0
2018-07-01T01:37:39.373Z,0
2018-07-01T01:38:48.782Z,0
2018-07-01T01:39:58.700Z,0
2018-07-01T01:41:08.125Z,0
2018-07-01T01:42:17.025Z,0
2018-07-01T01:43:26.451Z,0
2018-07-01T01:44:35.864Z,0
2018-07-01T01:45:45.264Z,0
2018-07-01T01:46:54.413Z,0
2018-07-01T01:48:03.569Z,0
2018-07-01T01:49:13.512Z,0
2018-07-01T01:50:22.908Z,0
2018-07-01T01:51:32.324Z,0
2018-07-01T01:52:41.995Z,0
2018-07-01T01:53:51.424Z,0
2018-07-01T01:55:01.095Z,0
2018-07-01T01:56:10.255Z,0
2018-07-01T01:57:19.413Z,0
2018-07-01T01:58:28.318Z,0
2018-07-01T01:59:37.720Z,0
2018-07-01T02:00:47.407Z,0
2018-07-01T02:01:56.806Z,0
2018-07-01T02:03:06.231Z,0
2018-07-01T02:04:15.629Z,0
2018-07-01T02:05:25.048Z,0
2018-07-01T02:06:34.816Z,0
2018-07-01T02:07:44.495Z,0
2018-07-01T02:08:53.921Z,0
2018-07-01T02:10:03.337Z,0
2018-07-01T02:11:12.512Z,0
2018-07-01T02:12:21.674Z,0
2018-07-01T02:13:31.103Z,0
2018-07-01T02:14:40.257Z,0
2018-07-01T02:15:49.408Z,0
2018-07-01T02:16:58.825Z,0
2018-07-01T02:18:07.977Z,0
2018-07-01T02:19:17.382Z,0
2018-07-01T02:20:27.047Z,0
2018-07-01T02:21:36.729Z,0
2018-07-01T02:22:45.883Z,0
2018-07-01T02:23:55.287Z,0
2018-07-01T02:25:04.434Z,0
2018-07-01T02:26:13.841Z,0
2018-07-01T02:27:23.257Z,0
2018-07-01T02:28:32.410Z,0
2018-07-01T02:29:41.561Z,0
2018-07-01T02:30:50.983Z,0
2018-07-01T02:32:00.919Z,0
2018-07-01T02:33:10.580Z,0
2018-07-01T02:34:19.989Z,0
2018-07-01T02:35:29.071Z,0
2018-07-01T02:36:38.819Z,0
2018-07-01T02:37:48.486Z,0
2018-07-01T02:38:58.419Z,0
2018-07-01T02:40:08.350Z,0
2018-07-01T02:41:17.512Z,0
2018-07-01T02:42:26.678Z,0
2018-07-01T02:43:36.342Z,0
2018-07-01T02:44:45.806Z,0
2018-07-01T02:45:54.971Z,0
2018-07-01T02:47:04.381Z,0
2018-07-01T02:48:14.304Z,0
2018-07-01T02:49:23.201Z,0
2018-07-01T02:50:32.606Z,0
2018-07-01T02:51:42.534Z,0
2018-07-01T02:52:52.196Z,0
2018-07-01T02:54:01.602Z,0
2018-07-01T02:55:11.543Z,0
2018-07-01T02:56:21.222Z,0
2018-07-01T02:57:31.156Z,0
2018-07-01T02:58:40.311Z,0
2018-07-01T02:59:50.235Z,0
2018-07-01T03:00:59.909Z,0
2018-07-01T03:02:09.312Z,0
2018-07-01T03:03:18.759Z,0
2018-07-01T03:04:28.160Z,0
2018-07-01T03:05:37.067Z,0
2018-07-01T03:06:46.474Z,0
2018-07-01T03:07:56.151Z,0
2018-07-01T03:09:05.313Z,0
2018-07-01T03:10:14.468Z,0
2018-07-01T03:11:23.884Z,0
2018-07-01T03:12:33.308Z,0
2018-07-01T03:13:43.229Z,0
2018-07-01T03:14:52.635Z,0
2018-07-01T03:16:02.309Z,0
2018-07-01T03:17:11.983Z,0
2018-07-01T03:18:21.395Z,0
2018-07-01T03:19:31.328Z,0
2018-07-01T03:20:40.498Z,0
2018-07-01T03:21:50.180Z,0
2018-07-01T03:22:59.083Z,0
2018-07-01T03:24:08.509Z,0
2018-07-01T03:25:17.915Z,0
2018-07-01T03:26:27.322Z,0
2018-07-01T03:27:36.988Z,0
2018-07-01T03:28:45.882Z,0
2018-07-01T03:29:55.536Z,0
2018-07-01T03:31:04.679Z,0
2018-07-01T03:32:14.112Z,0
2018-07-01T03:33:23.512Z,0
2018-07-01T03:34:32.932Z,0
2018-07-01T03:35:42.589Z,0
2018-07-01T03:36:52.013Z,0
2018-07-01T03:38:01.160Z,0
2018-07-01T03:39:10.815Z,0
2018-07-01T03:40:20.242Z,0
2018-07-01T03:41:29.673Z,0
2018-07-01T03:42:39.336Z,0
2018-07-01T03:43:49.008Z,0
2018-07-01T03:44:58.685Z,0
2018-07-01T03:46:08.103Z,0
2018-07-01T03:47:17.524Z,0
2018-07-01T03:48:26.407Z,0
2018-07-01T03:49:36.060Z,0
2018-07-01T03:50:45.209Z,0
2018-07-01T03:51:54.357Z,0
2018-07-01T03:53:03.756Z,0
2018-07-01T03:54:12.905Z,0
2018-07-01T03:55:21.800Z,0
2018-07-01T03:56:31.451Z,0
2018-07-01T03:57:40.994Z,0
2018-07-01T03:58:50.185Z,0
2018-07-01T03:59:59.602Z,0
2018-07-01T04:01:08.778Z,0
2018-07-01T04:02:18.219Z,0
2018-07-01T04:03:27.411Z,0
2018-07-01T04:04:37.072Z,0
2018-07-01T04:05:46.484Z,0
2018-07-01T04:06:56.154Z,0
2018-07-01T04:08:05.299Z,0
2018-07-01T04:09:14.457Z,0
2018-07-01T04:10:24.389Z,0
2018-07-01T04:11:34.061Z,0
2018-07-01T04:12:43.477Z,4
2018-07-01T04:13:52.630Z,4
2018-07-01T04:15:01.781Z,4
2018-07-01T04:16:10.946Z,4
2018-07-01T04:17:20.345Z,4
2018-07-01T04:18:30.012Z,4
2018-07-01T04:19:39.692Z,0
2018-07-01T04:20:48.856Z,0
2018-07-01T04:21:58.006Z,0
2018-07-01T04:23:07.689Z,0
2018-07-01T04:24:17.107Z,0
2018-07-01T04:25:26.016Z,0
2018-07-01T04:26:35.433Z,0
2018-07-01T04:27:44.852Z,0
2018-07-01T04:28:54.012Z,0
2018-07-01T04:30:03.423Z,0
2018-07-01T04:31:13.189Z,4
2018-07-01T04:32:23.274Z,4
2018-07-01T04:33:32.430Z,4
2018-07-01T04:34:42.347Z,4
2018-07-01T04:35:51.776Z,4
2018-07-01T04:37:01.465Z,4
2018-07-01T04:38:11.396Z,4
2018-07-01T04:39:20.805Z,4
2018-07-01T04:40:30.212Z,4
2018-07-01T04:41:39.356Z,4
2018-07-01T04:42:48.763Z,4
2018-07-01T04:43:58.180Z,4
2018-07-01T04:45:07.330Z,4
2018-07-01T04:46:16.996Z,0
2018-07-01T04:47:26.406Z,0
2018-07-01T04:48:35.556Z,4
2018-07-01T04:49:44.702Z,4
2018-07-01T04:50:54.367Z,4
2018-07-01T04:52:03.774Z,4
2018-07-01T04:53:12.684Z,4
2018-07-01T04:54:21.629Z,4
2018-07-01T04:55:31.327Z,4
2018-07-01T04:56:41.000Z,4
2018-07-01T04:57:49.889Z,4
2018-07-01T04:58:59.296Z,4
2018-07-01T05:00:08.460Z,4
2018-07-01T05:01:17.882Z,4
2018-07-01T05:02:27.431Z,4
2018-07-01T05:03:36.932Z,4
2018-07-01T05:04:46.326Z,8
2018-07-01T05:05:55.724Z,4
2018-07-01T05:07:05.380Z,4
2018-07-01T05:08:14.915Z,4
2018-07-01T05:09:24.328Z,4
2018-07-01T05:10:33.726Z,4
2018-07-01T05:11:43.665Z,4
2018-07-01T05:12:53.339Z,4
2018-07-01T05:14:02.992Z,8
2018-07-01T05:15:12.391Z,4
2018-07-01T05:16:22.065Z,4
2018-07-01T05:17:31.471Z,8
2018-07-01T05:18:40.934Z,4
2018-07-01T05:19:50.088Z,4
2018-07-01T05:20:59.489Z,8
2018-07-01T05:22:08.883Z,8
2018-07-01T05:23:18.298Z,8
2018-07-01T05:24:27.718Z,12
2018-07-01T05:25:37.658Z,12
2018-07-01T05:26:46.824Z,8
2018-07-01T05:27:55.722Z,12
2018-07-01T05:29:05.143Z,12
2018-07-01T05:30:14.821Z,8
2018-07-01T05:31:24.237Z,12
2018-07-01T05:32:33.636Z,12
2018-07-01T05:33:42.935Z,12
2018-07-01T05:34:52.418Z,12
2018-07-01T05:36:01.864Z,12
2018-07-01T05:37:11.289Z,12
2018-07-01T05:38:20.716Z,12
2018-07-01T05:39:30.382Z,16
2018-07-01T05:40:39.777Z,12
2018-07-01T05:41:48.720Z,16
2018-07-01T05:42:58.379Z,12
2018-07-01T05:44:07.527Z,16
2018-07-01T05:45:17.173Z,16
2018-07-01T05:46:26.857Z,16
2018-07-01T05:47:36.517Z,16
2018-07-01T05:48:45.661Z,20
2018-07-01T05:49:55.074Z,16
2018-07-01T05:51:04.729Z,20
2018-07-01T05:52:13.899Z,20
2018-07-01T05:53:23.564Z,40
2018-07-01T05:54:32.980Z,24
2018-07-01T05:55:42.386Z,24
2018-07-01T05:56:51.309Z,24
2018-07-01T05:58:00.986Z,24
2018-07-01T05:59:10.393Z,24
2018-07-01T06:00:19.545Z,28
2018-07-01T06:01:28.440Z,28
2018-07-01T06:02:37.591Z,32
2018-07-01T06:03:46.499Z,28
2018-07-01T06:04:55.911Z,32
2018-07-01T06:06:05.081Z,32
2018-07-01T06:07:13.982Z,28
2018-07-01T06:08:23.133Z,32
2018-07-01T06:09:32.559Z,32
2018-07-01T06:10:42.227Z,32
2018-07-01T06:11:51.651Z,36
2018-07-01T06:13:00.803Z,36
2018-07-01T06:14:09.737Z,36
2018-07-01T06:15:19.447Z,36
2018-07-01T06:16:29.241Z,40
2018-07-01T06:17:39.139Z,40
2018-07-01T06:18:49.111Z,44
2018-07-01T06:19:58.574Z,48
2018-07-01T06:21:07.987Z,48
2018-07-01T06:22:17.408Z,48
2018-07-01T06:23:26.302Z,52
2018-07-01T06:24:35.766Z,52
2018-07-01T06:25:45.051Z,56
2018-07-01T06:26:53.906Z,56
2018-07-01T06:28:03.316Z,56
2018-07-01T06:29:12.463Z,56
2018-07-01T06:30:22.143Z,60
2018-07-01T06:31:31.548Z,64
2018-07-01T06:32:40.970Z,64
2018-07-01T06:33:50.641Z,60
2018-07-01T06:35:00.571Z,60
2018-07-01T06:36:09.983Z,60
2018-07-01T06:37:18.873Z,60
2018-07-01T06:38:28.544Z,64
2018-07-01T06:39:37.756Z,60
2018-07-01T06:40:46.918Z,60
2018-07-01T06:41:56.715Z,56
2018-07-01T06:43:05.942Z,52
2018-07-01T06:44:15.410Z,52
2018-07-01T06:45:24.815Z,52
2018-07-01T06:46:34.289Z,48
2018-07-01T06:47:43.706Z,44
2018-07-01T06:48:53.430Z,36
2018-07-01T06:50:02.845Z,36
2018-07-01T06:51:12.010Z,36
2018-07-01T06:52:21.418Z,44
2018-07-01T06:53:30.829Z,52
2018-07-01T06:54:40.479Z,52
2018-07-01T06:55:50.419Z,52
2018-07-01T06:56:59.834Z,52
2018-07-01T06:58:09.482Z,48
2018-07-01T06:59:18.378Z,48
2018-07-01T07:00:28.034Z,48
2018-07-01T07:01:37.702Z,48
2018-07-01T07:02:46.847Z,44
2018-07-01T07:03:55.808Z,44
2018-07-01T07:05:05.216Z,44
2018-07-01T07:06:14.885Z,40
2018-07-01T07:07:24.049Z,44
2018-07-01T07:08:33.462Z,40
2018-07-01T07:09:42.880Z,40
2018-07-01T07:10:52.556Z,40
2018-07-01T07:12:01.715Z,40
2018-07-01T07:13:11.128Z,40
2018-07-01T07:14:20.536Z,40
2018-07-01T07:15:29.955Z,40
2018-07-01T07:16:39.369Z,36
2018-07-01T07:17:48.531Z,40
2018-07-01T07:18:57.936Z,40
2018-07-01T07:20:07.093Z,40
2018-07-01T07:21:16.244Z,40
2018-07-01T07:22:25.390Z,40
2018-07-01T07:23:34.543Z,40
2018-07-01T07:24:44.307Z,40
2018-07-01T07:25:53.728Z,40
2018-07-01T07:27:02.627Z,44
2018-07-01T07:28:12.582Z,40
2018-07-01T07:29:22.295Z,40
2018-07-01T07:30:31.178Z,40
2018-07-01T07:31:40.350Z,40
2018-07-01T07:32:49.507Z,40
2018-07-01T07:33:59.204Z,40
2018-07-01T07:35:08.871Z,40
2018-07-01T07:36:18.522Z,40
2018-07-01T07:37:28.496Z,40
2018-07-01T07:38:37.908Z,40
2018-07-01T07:39:47.094Z,44
2018-07-01T07:40:56.253Z,44
2018-07-01T07:42:05.220Z,40
2018-07-01T07:43:14.891Z,40
2018-07-01T07:44:23.803Z,44
2018-07-01T07:45:33.049Z,40
2018-07-01T07:46:42.739Z,40
2018-07-01T07:47:52.599Z,40
2018-07-01T07:49:01.883Z,44
2018-07-01T07:50:11.310Z,44
2018-07-01T07:51:20.253Z,44
2018-07-01T07:52:30.307Z,44
2018-07-01T07:53:39.260Z,44
2018-07-01T07:54:48.408Z,44
2018-07-01T07:55:57.140Z,44
2018-07-01T07:57:06.677Z,48
2018-07-01T07:58:15.676Z,48
2018-07-01T07:59:25.095Z,44
2018-07-01T08:00:34.764Z,44
2018-07-01T08:01:44.421Z,48
2018-07-01T08:02:54.083Z,44
2018-07-01T08:04:03.240Z,44
2018-07-01T08:05:12.667Z,48
2018-07-01T08:06:22.342Z,44
2018-07-01T08:07:31.709Z,44
2018-07-01T08:08:40.891Z,44
2018-07-01T08:09:50.573Z,44
2018-07-01T08:10:59.482Z,44
2018-07-01T08:12:08.642Z,44
2018-07-01T08:13:18.360Z,44
2018-07-01T08:14:27.514Z,44
2018-07-01T08:15:37.184Z,44
2018-07-01T08:16:46.882Z,48
2018-07-01T08:17:56.285Z,44
2018-07-01T08:19:05.687Z,44
2018-07-01T08:20:15.094Z,48
2018-07-01T08:21:24.774Z,44
2018-07-01T08:22:34.199Z,48
2018-07-01T08:23:43.601Z,48
2018-07-01T08:24:52.757Z,48
2018-07-01T08:26:01.905Z,48
2018-07-01T08:27:11.066Z,48
2018-07-01T08:28:19.982Z,48
2018-07-01T08:29:29.142Z,48
2018-07-01T08:30:38.306Z,48
2018-07-01T08:31:47.444Z,48
2018-07-01T08:32:57.161Z,44
2018-07-01T08:34:06.880Z,48
2018-07-01T08:35:16.034Z,48
2018-07-01T08:36:25.687Z,48
2018-07-01T08:37:35.359Z,48
2018-07-01T08:38:44.525Z,48
2018-07-01T08:39:54.187Z,48
2018-07-01T08:41:03.585Z,48
2018-07-01T08:42:12.982Z,48
2018-07-01T08:43:22.398Z,48
2018-07-01T08:44:32.160Z,48
2018-07-01T08:45:41.562Z,48
2018-07-01T08:46:51.225Z,48
2018-07-01T08:48:00.881Z,48
2018-07-01T08:49:10.566Z,48
2018-07-01T08:50:19.971Z,48
2018-07-01T08:51:29.651Z,44
2018-07-01T08:52:39.897Z,48
2018-07-01T08:53:49.545Z,48
2018-07-01T08:54:58.449Z,48
2018-07-01T08:56:07.624Z,44
2018-07-01T08:57:17.297Z,48
2018-07-01T08:58:26.713Z,48
2018-07-01T08:59:36.115Z,48
2018-07-01T09:00:45.327Z,48
2018-07-01T09:01:55.272Z,48
2018-07-01T09:03:04.678Z,48
2018-07-01T09:04:13.841Z,48
2018-07-01T09:05:23.252Z,44
2018-07-01T09:06:32.170Z,48
2018-07-01T09:07:41.082Z,44
2018-07-01T09:08:50.415Z,44
2018-07-01T09:09:59.622Z,44
2018-07-01T09:11:08.515Z,44
2018-07-01T09:12:17.683Z,44
2018-07-01T09:13:26.558Z,48
2018-07-01T09:14:35.458Z,44
2018-07-01T09:15:44.859Z,44
2018-07-01T09:16:54.621Z,44
2018-07-01T09:18:03.737Z,44
2018-07-01T09:19:13.679Z,44
2018-07-01T09:20:23.336Z,44
2018-07-01T09:21:32.223Z,44
2018-07-01T09:22:41.371Z,28
2018-07-01T09:23:51.292Z,28
2018-07-01T09:25:00.730Z,28
2018-07-01T09:26:09.875Z,28
2018-07-01T09:27:19.804Z,28
2018-07-01T09:28:29.524Z,28
2018-07-01T09:29:38.424Z,28
2018-07-01T09:30:47.584Z,28
2018-07-01T09:31:56.758Z,28
2018-07-01T09:33:06.555Z,28
2018-07-01T09:34:17.241Z,28
2018-07-01T09:35:27.340Z,28
2018-07-01T09:36:36.789Z,24
2018-07-01T09:37:45.954Z,28
2018-07-01T09:38:55.169Z,28
2018-07-01T09:40:04.366Z,24
2018-07-01T09:41:13.771Z,24
2018-07-01T09:42:22.999Z,24
2018-07-01T09:43:32.899Z,24
2018-07-01T09:44:43.298Z,28
2018-07-01T09:45:52.702Z,28
2018-07-01T09:47:01.881Z,28
2018-07-01T09:48:12.185Z,24
2018-07-01T09:49:23.195Z,28
2018-07-01T09:50:33.324Z,28
2018-07-01T09:51:43.378Z,28
2018-07-01T09:52:53.240Z,28
2018-07-01T09:54:03.122Z,28
2018-07-01T09:55:12.810Z,28
2018-07-01T09:56:21.711Z,28
2018-07-01T09:57:31.667Z,24
2018-07-01T09:58:41.938Z,28
2018-07-01T09:59:52.303Z,24
2018-07-01T10:01:01.841Z,24
2018-07-01T10:02:11.224Z,24
2018-07-01T10:03:20.933Z,0
2018-07-01T10:04:30.078Z,0
2018-07-01T10:05:40.014Z,0
2018-07-01T10:06:49.661Z,0
2018-07-01T10:07:58.816Z,0
2018-07-01T10:09:08.221Z,0
2018-07-01T10:10:17.366Z,0
2018-07-01T10:11:26.518Z,0
2018-07-01T10:12:35.940Z,0
2018-07-01T10:13:45.614Z,0
2018-07-01T10:14:55.022Z,0
2018-07-01T10:16:04.161Z,0
2018-07-01T10:17:13.331Z,0
2018-07-01T10:18:22.991Z,0
2018-07-01T10:19:32.407Z,0
2018-07-01T10:20:41.550Z,0
2018-07-01T10:21:51.208Z,0
2018-07-01T10:23:00.357Z,0
2018-07-01T10:24:10.033Z,4
2018-07-01T10:25:19.437Z,4
2018-07-01T10:26:28.658Z,4
2018-07-01T10:27:38.161Z,0
2018-07-01T10:28:47.561Z,4
2018-07-01T10:29:56.770Z,4
2018-07-01T10:31:05.908Z,0
2018-07-01T10:32:14.799Z,0
2018-07-01T10:33:24.267Z,0
2018-07-01T10:34:33.173Z,0
2018-07-01T10:35:42.593Z,0
2018-07-01T10:36:52.268Z,0
2018-07-01T10:38:01.686Z,0
2018-07-01T10:39:10.884Z,0
2018-07-01T10:40:20.641Z,0
2018-07-01T10:41:30.574Z,0
2018-07-01T10:42:39.720Z,0
2018-07-01T10:43:49.124Z,0
2018-07-01T10:44:58.286Z,0
2018-07-01T10:46:07.698Z,0
2018-07-01T10:47:16.852Z,0
2018-07-01T10:48:26.010Z,0
2018-07-01T10:49:35.423Z,0
2018-07-01T10:50:44.570Z,0
2018-07-01T10:51:53.723Z,0
2018-07-01T10:53:03.388Z,0
2018-07-01T10:54:13.053Z,0
2018-07-01T10:55:22.741Z,0
2018-07-01T10:56:32.151Z,0
2018-07-01T10:57:41.487Z,0
2018-07-01T10:58:51.401Z,0
2018-07-01T11:00:00.829Z,0
2018-07-01T11:01:10.254Z,0
2018-07-01T11:02:20.199Z,0
2018-07-01T11:03:29.865Z,0
2018-07-01T11:04:39.030Z,0
2018-07-01T11:05:48.178Z,0
2018-07-01T11:06:58.107Z,0
2018-07-01T11:08:07.251Z,0
2018-07-01T11:09:16.661Z,0
2018-07-01T11:10:25.565Z,0
2018-07-01T11:11:34.964Z,0
2018-07-01T11:12:45.087Z,0
2018-07-01T11:13:54.227Z,0
2018-07-01T11:15:03.903Z,0
2018-07-01T11:16:13.307Z,0
2018-07-01T11:17:22.710Z,0
2018-07-01T11:18:32.123Z,0
2018-07-01T11:19:41.007Z,0
2018-07-01T11:20:50.434Z,0
2018-07-01T11:22:00.104Z,0
2018-07-01T11:23:08.992Z,0
2018-07-01T11:24:18.921Z,0
2018-07-01T11:25:28.866Z,0
2018-07-01T11:26:38.239Z,0
2018-07-01T11:27:48.377Z,0
2018-07-01T11:28:57.266Z,0
2018-07-01T11:30:06.697Z,0
2018-07-01T11:31:16.109Z,0
2018-07-01T11:32:25.769Z,0
2018-07-01T11:33:35.171Z,0
2018-07-01T11:34:44.582Z,0
2018-07-01T11:35:53.731Z,0
2018-07-01T11:37:02.872Z,0
2018-07-01T11:38:12.925Z,0
2018-07-01T11:39:22.549Z,0
2018-07-01T11:40:31.954Z,0
2018-07-01T11:41:41.101Z,0
2018-07-01T11:42:50.798Z,0
2018-07-01T11:43:59.939Z,0
2018-07-01T11:45:09.606Z,0
2018-07-01T11:46:18.502Z,0
2018-07-01T11:47:27.903Z,0
2018-07-01T11:48:37.303Z,0
2018-07-01T11:49:46.720Z,0
2018-07-01T11:50:56.187Z,0
2018-07-01T11:52:05.081Z,4
2018-07-01T11:53:14.239Z,4
2018-07-01T11:54:23.645Z,4
2018-07-01T11:55:33.301Z,4
2018-07-01T11:56:42.711Z,4
2018-07-01T11:57:52.112Z,4
2018-07-01T11:59:01.774Z,4
2018-07-01T12:00:11.820Z,4
2018-07-01T12:01:21.244Z,4
2018-07-01T12:02:30.413Z,4
2018-07-01T12:03:39.305Z,4
2018-07-01T12:05:22.676Z,4
2018-07-01T12:06:32.366Z,4
2018-07-01T12:07:42.071Z,4
2018-07-01T12:08:51.476Z,4
2018-07-01T12:10:00.642Z,4
2018-07-01T12:11:10.337Z,4
2018-07-01T12:12:19.759Z,4
2018-07-01T12:13:28.900Z,4
2018-07-01T12:14:38.309Z,4
2018-07-01T12:15:47.729Z,4
2018-07-01T12:16:56.634Z,0
2018-07-01T12:18:06.065Z,0
2018-07-01T12:19:14.969Z,0
2018-07-01T12:20:24.134Z,4
2018-07-01T12:21:33.294Z,4
2018-07-01T12:22:42.443Z,4
2018-07-01T12:23:51.854Z,4
2018-07-01T12:25:01.008Z,4
2018-07-01T12:26:10.671Z,4
2018-07-01T12:27:20.084Z,4
2018-07-01T12:28:29.244Z,4
2018-07-01T12:29:38.399Z,4
2018-07-01T12:30:48.352Z,4
2018-07-01T12:31:58.293Z,4
2018-07-01T12:33:07.700Z,8
2018-07-01T12:34:16.860Z,8
2018-07-01T12:35:26.015Z,4
2018-07-01T12:36:35.451Z,4
2018-07-01T12:37:44.344Z,4
2018-07-01T12:38:53.758Z,4
2018-07-01T12:40:02.915Z,4
2018-07-01T12:41:12.320Z,8
2018-07-01T12:42:22.394Z,8
2018-07-01T12:43:31.791Z,8
2018-07-01T12:44:41.713Z,8
2018-07-01T12:45:51.124Z,8
2018-07-01T12:47:00.019Z,4
2018-07-01T12:48:09.929Z,4
2018-07-01T12:49:19.649Z,8
2018-07-01T12:50:28.829Z,8
2018-07-01T12:51:37.721Z,8
2018-07-01T12:52:46.625Z,8
2018-07-01T12:53:55.517Z,8
2018-07-01T12:55:04.720Z,8
2018-07-01T12:56:15.310Z,8
2018-07-01T12:57:24.827Z,8
2018-07-01T12:58:33.964Z,12
2018-07-01T12:59:43.369Z,8
2018-07-01T13:00:52.528Z,8
2018-07-01T13:02:02.045Z,8
2018-07-01T13:03:10.983Z,8
2018-07-01T13:04:20.384Z,8
2018-07-01T13:05:29.546Z,8
2018-07-01T13:06:38.955Z,8
2018-07-01T13:07:47.851Z,12
2018-07-01T13:08:57.035Z,12
2018-07-01T13:10:06.699Z,12
2018-07-01T13:11:16.361Z,12
2018-07-01T13:12:25.615Z,8
2018-07-01T13:13:34.515Z,8
2018-07-01T13:14:43.937Z,8
2018-07-01T13:15:53.090Z,8
2018-07-01T13:17:02.493Z,8
2018-07-01T13:18:11.661Z,12
2018-07-01T13:19:21.333Z,12
2018-07-01T13:20:31.034Z,12
2018-07-01T13:21:40.698Z,12
2018-07-01T13:22:50.360Z,12
2018-07-01T13:23:59.785Z,12
2018-07-01T13:25:09.600Z,12
2018-07-01T13:26:19.032Z,12
2018-07-01T13:27:28.175Z,12
2018-07-01T13:28:37.579Z,12
2018-07-01T13:29:47.509Z,12
2018-07-01T13:30:56.663Z,12
2018-07-01T13:32:06.128Z,12
2018-07-01T13:33:15.802Z,12
2018-07-01T13:34:25.230Z,12
2018-07-01T13:35:34.386Z,12
2018-07-01T13:36:43.536Z,12
2018-07-01T13:37:52.950Z,12
2018-07-01T13:39:02.359Z,12
2018-07-01T13:40:11.783Z,12
2018-07-01T13:41:20.962Z,16
2018-07-01T13:42:30.374Z,12
2018-07-01T13:43:39.036Z,12
2018-07-01T13:44:48.444Z,16
2018-07-01T13:45:57.858Z,16
2018-07-01T13:47:07.271Z,12
2018-07-01T13:48:16.432Z,12
2018-07-01T13:49:26.039Z,12
2018-07-01T13:50:35.459Z,12
2018-07-01T13:51:44.609Z,12
2018-07-01T13:52:53.767Z,12
2018-07-01T13:54:02.933Z,12
2018-07-01T13:55:12.621Z,12
2018-07-01T13:56:22.290Z,12
2018-07-01T13:57:31.456Z,12
2018-07-01T13:58:40.364Z,12
2018-07-01T13:59:49.535Z,16
2018-07-01T14:00:59.193Z,16
2018-07-01T14:02:08.337Z,12
2018-07-01T14:03:18.036Z,16
2018-07-01T14:04:27.458Z,12
2018-07-01T14:05:36.609Z,12
2018-07-01T14:06:46.309Z,12
2018-07-01T14:07:55.199Z,16
2018-07-01T14:09:04.341Z,16
2018-07-01T14:10:13.236Z,16
2018-07-01T14:11:22.923Z,16
2018-07-01T14:12:31.877Z,16
2018-07-01T14:13:41.336Z,16
2018-07-01T14:14:50.545Z,12
2018-07-01T14:15:59.952Z,12
2018-07-01T14:17:09.110Z,12
2018-07-01T14:18:18.794Z,16
2018-07-01T14:19:28.452Z,12
2018-07-01T14:20:38.107Z,16
2018-07-01T14:21:47.762Z,12
2018-07-01T14:22:57.418Z,12
2018-07-01T14:24:06.837Z,12
2018-07-01T14:25:16.251Z,12
2018-07-01T14:26:25.924Z,8
2018-07-01T14:27:35.597Z,8
2018-07-01T14:28:44.745Z,12
2018-07-01T14:29:54.600Z,12
2018-07-01T14:31:04.016Z,12
2018-07-01T14:32:13.419Z,12
2018-07-01T14:33:22.831Z,12
2018-07-01T14:34:31.729Z,48
2018-07-01T14:35:41.281Z,48
2018-07-01T14:36:50.763Z,48
2018-07-01T14:38:00.190Z,48
2018-07-01T14:39:09.336Z,44
2018-07-01T14:40:19.260Z,44
2018-07-01T14:41:28.671Z,44
2018-07-01T14:42:38.081Z,44
2018-07-01T14:43:47.586Z,40
2018-07-01T14:44:56.489Z,40
2018-07-01T14:46:05.649Z,44
2018-07-01T14:47:14.553Z,44
2018-07-01T14:48:23.974Z,40
2018-07-01T14:49:33.380Z,40
2018-07-01T14:50:42.807Z,40
2018-07-01T14:51:52.519Z,40
2018-07-01T14:53:02.201Z,36
2018-07-01T14:54:11.365Z,36
2018-07-01T14:55:20.284Z,32
2018-07-01T14:56:29.424Z,36
2018-07-01T14:57:38.573Z,32
2018-07-01T14:58:47.988Z,28
2018-07-01T14:59:56.885Z,32
2018-07-01T15:01:06.550Z,28
2018-07-01T15:02:15.722Z,28
2018-07-01T15:03:25.750Z,28
2018-07-01T15:04:35.248Z,24
2018-07-01T15:05:44.918Z,28
2018-07-01T15:06:54.324Z,24
2018-07-01T15:08:02.956Z,28
2018-07-01T15:09:12.113Z,24
2018-07-01T15:10:21.788Z,24
2018-07-01T15:11:30.953Z,20
2018-07-01T15:12:40.374Z,20
2018-07-01T15:13:49.544Z,20
2018-07-01T15:14:59.213Z,20
2018-07-01T15:16:08.629Z,20
2018-07-01T15:17:17.782Z,20
2018-07-01T15:18:27.450Z,20
2018-07-01T15:19:36.352Z,24
2018-07-01T15:20:45.510Z,20
2018-07-01T15:21:54.403Z,20
2018-07-01T15:23:03.814Z,20
2018-07-01T15:24:13.240Z,16
2018-07-01T15:25:22.663Z,16
2018-07-01T15:26:32.089Z,12
2018-07-01T15:27:40.722Z,16
2018-07-01T15:28:49.875Z,8
2018-07-01T15:29:59.783Z,8
2018-07-01T15:31:09.211Z,8
2018-07-01T15:32:18.923Z,4
2018-07-01T15:33:28.605Z,4
2018-07-01T15:34:38.018Z,4
2018-07-01T15:35:47.169Z,4
2018-07-01T15:36:56.345Z,4
2018-07-01T15:38:04.972Z,4
2018-07-01T15:39:14.117Z,4
2018-07-01T15:40:23.981Z,4
2018-07-01T15:41:33.141Z,4
2018-07-01T15:42:42.302Z,4
2018-07-01T15:43:51.717Z,4
2018-07-01T15:45:00.348Z,4
2018-07-01T15:46:10.024Z,8
2018-07-01T15:47:19.687Z,8
2018-07-01T15:48:28.316Z,8
2018-07-01T15:49:37.743Z,8
2018-07-01T15:50:46.896Z,4
2018-07-01T15:51:56.827Z,4
2018-07-01T15:53:06.882Z,4
2018-07-01T15:54:15.781Z,4
2018-07-01T15:55:24.985Z,4
2018-07-01T15:56:34.404Z,4
2018-07-01T15:57:43.810Z,4
2018-07-01T15:59:25.058Z,4
2018-07-01T16:00:33.695Z,4
2018-07-01T16:01:42.846Z,8
2018-07-01T16:02:52.261Z,8
2018-07-01T16:04:01.168Z,8
2018-07-01T16:05:10.316Z,8
2018-07-01T16:06:20.240Z,8
2018-07-01T16:07:29.645Z,8
2018-07-01T16:08:39.066Z,8
2018-07-01T16:09:48.735Z,8
2018-07-01T16:10:58.156Z,4
2018-07-01T16:12:07.560Z,4
2018-07-01T16:13:16.975Z,4
2018-07-01T16:14:26.379Z,4
2018-07-01T16:15:35.794Z,4
2018-07-01T16:16:44.690Z,4
2018-07-01T16:17:54.556Z,4
2018-07-01T16:19:03.820Z,4
2018-07-01T16:20:12.720Z,4
2018-07-01T16:21:21.859Z,4
2018-07-01T16:22:31.290Z,4
2018-07-01T16:23:40.956Z,4
2018-07-01T16:24:50.095Z,4
2018-07-01T16:25:59.793Z,4
2018-07-01T16:27:09.346Z,4
2018-07-01T16:28:18.516Z,4
2018-07-01T16:29:27.925Z,4
2018-07-01T16:30:37.354Z,4
2018-07-01T16:31:47.037Z,4
2018-07-01T16:32:56.220Z,4
2018-07-01T16:34:05.376Z,4
2018-07-01T16:35:14.523Z,8
2018-07-01T16:36:24.192Z,8
2018-07-01T16:37:33.873Z,8
2018-07-01T16:38:43.292Z,8
2018-07-01T16:39:52.438Z,4
2018-07-01T16:41:01.936Z,4
2018-07-01T16:42:11.505Z,4
2018-07-01T16:43:20.649Z,4
2018-07-01T16:44:30.051Z,4
2018-07-01T16:45:39.980Z,4
2018-07-01T16:46:49.390Z,4
2018-07-01T16:47:58.816Z,4
2018-07-01T16:49:07.748Z,4
2018-07-01T16:50:16.654Z,4
2018-07-01T16:51:25.567Z,4
2018-07-01T16:52:34.845Z,4